sensor_id;sensor_type;location;lat;lon;timestamp;pressure;altitude;pressure_sealevel;temperature;humidity
36138;BME280;67787;50.074;21.904;2023-04-27T00:02:11;99122.68;;;5.18;53.30
36138;BME280;67787;50.074;21.904;2023-04-27T00:04:40;99123.70;;;5.19;53.37
36138;BME280;67787;50.074;21.904;2023-04-27T00:07:08;99123.84;;;5.19;53.03
36138;BME280;67787;50.074;21.904;2023-04-27T00:09:36;99122.30;;;5.18;53.29
36138;BME280;67787;50.074;21.904;2023-04-27T00:12:05;99126.89;;;5.18;53.45
36138;BME280;67787;50.074;21.904;2023-04-27T00:14:33;99124.27;;;5.18;53.62
36138;BME280;67787;50.074;21.904;2023-04-27T00:17:01;99122.95;;;5.16;53.67
36138;BME280;67787;50.074;21.904;2023-04-27T00:19:29;99119.36;;;5.17;53.52
36138;BME280;67787;50.074;21.904;2023-04-27T00:21:57;99124.30;;;5.17;53.37
36138;BME280;67787;50.074;21.904;2023-04-27T00:24:27;99123.14;;;5.16;53.66
36138;BME280;67787;50.074;21.904;2023-04-27T00:26:55;99122.66;;;5.15;53.42
36138;BME280;67787;50.074;21.904;2023-04-27T00:29:24;99120.05;;;5.14;53.82
36138;BME280;67787;50.074;21.904;2023-04-27T00:31:52;99119.71;;;5.14;53.85
36138;BME280;67787;50.074;21.904;2023-04-27T00:34:20;99125.75;;;5.13;53.89
36138;BME280;67787;50.074;21.904;2023-04-27T00:36:48;99126.09;;;5.13;53.95
36138;BME280;67787;50.074;21.904;2023-04-27T00:39:16;99123.10;;;5.13;53.89
36138;BME280;67787;50.074;21.904;2023-04-27T00:41:45;99121.69;;;5.13;54.08
36138;BME280;67787;50.074;21.904;2023-04-27T00:44:12;99126.96;;;5.13;54.02
36138;BME280;67787;50.074;21.904;2023-04-27T00:46:40;99126.27;;;5.13;54.04
36138;BME280;67787;50.074;21.904;2023-04-27T00:49:08;99126.20;;;5.14;54.04
36138;BME280;67787;50.074;21.904;2023-04-27T00:51:36;99125.55;;;5.13;54.08
36138;BME280;67787;50.074;21.904;2023-04-27T00:54:04;99124.80;;;5.14;54.27
36138;BME280;67787;50.074;21.904;2023-04-27T00:56:33;99121.91;;;5.16;54.23
36138;BME280;67787;50.074;21.904;2023-04-27T00:59:01;99122.70;;;5.17;54.13
36138;BME280;67787;50.074;21.904;2023-04-27T01:01:29;99126.73;;;5.18;54.27
36138;BME280;67787;50.074;21.904;2023-04-27T01:03:57;99126.27;;;5.16;54.18
36138;BME280;67787;50.074;21.904;2023-04-27T01:06:25;99123.40;;;5.14;54.29
36138;BME280;67787;50.074;21.904;2023-04-27T01:08:54;99127.40;;;5.11;54.25
36138;BME280;67787;50.074;21.904;2023-04-27T01:11:23;99122.55;;;5.13;54.57
36138;BME280;67787;50.074;21.904;2023-04-27T01:13:52;99126.80;;;5.12;54.41
36138;BME280;67787;50.074;21.904;2023-04-27T01:16:21;99129.00;;;5.11;54.57
36138;BME280;67787;50.074;21.904;2023-04-27T01:18:49;99126.92;;;5.10;54.54
36138;BME280;67787;50.074;21.904;2023-04-27T01:21:17;99132.47;;;5.08;54.74
36138;BME280;67787;50.074;21.904;2023-04-27T01:23:45;99134.33;;;5.06;54.73
36138;BME280;67787;50.074;21.904;2023-04-27T01:26:14;99132.41;;;5.06;54.68
36138;BME280;67787;50.074;21.904;2023-04-27T01:28:43;99132.91;;;5.06;54.82
36138;BME280;67787;50.074;21.904;2023-04-27T01:31:10;99135.98;;;5.09;54.81
36138;BME280;67787;50.074;21.904;2023-04-27T01:33:39;99139.39;;;5.07;54.87
36138;BME280;67787;50.074;21.904;2023-04-27T01:36:08;99139.95;;;5.06;54.77
36138;BME280;67787;50.074;21.904;2023-04-27T01:38:36;99142.61;;;5.06;54.84
36138;BME280;67787;50.074;21.904;2023-04-27T01:41:04;99139.69;;;5.04;54.94
36138;BME280;67787;50.074;21.904;2023-04-27T01:43:36;99141.61;;;5.04;55.05
36138;BME280;67787;50.074;21.904;2023-04-27T01:46:11;99137.87;;;5.06;55.14
36138;BME280;67787;50.074;21.904;2023-04-27T01:48:40;99139.46;;;5.05;55.07
36138;BME280;67787;50.074;21.904;2023-04-27T01:51:08;99139.13;;;5.05;55.09
36138;BME280;67787;50.074;21.904;2023-04-27T01:53:36;99142.98;;;5.05;55.29
36138;BME280;67787;50.074;21.904;2023-04-27T01:56:04;99139.29;;;5.05;55.18
36138;BME280;67787;50.074;21.904;2023-04-27T01:58:33;99142.85;;;5.04;55.18
36138;BME280;67787;50.074;21.904;2023-04-27T02:01:01;99141.38;;;5.02;55.37
36138;BME280;67787;50.074;21.904;2023-04-27T02:03:29;99145.23;;;5.02;55.34
36138;BME280;67787;50.074;21.904;2023-04-27T02:05:57;99141.95;;;5.01;55.36
36138;BME280;67787;50.074;21.904;2023-04-27T02:08:25;99145.00;;;5.00;55.46
36138;BME280;67787;50.074;21.904;2023-04-27T02:10:53;99142.92;;;4.99;55.52
36138;BME280;67787;50.074;21.904;2023-04-27T02:13:22;99144.11;;;5.00;55.58
36138;BME280;67787;50.074;21.904;2023-04-27T02:15:50;99146.82;;;4.99;55.56
36138;BME280;67787;50.074;21.904;2023-04-27T02:18:18;99145.67;;;4.97;55.53
36138;BME280;67787;50.074;21.904;2023-04-27T02:20:46;99149.90;;;4.97;55.61
36138;BME280;67787;50.074;21.904;2023-04-27T02:23:14;99150.08;;;4.97;55.64
36138;BME280;67787;50.074;21.904;2023-04-27T02:25:42;99148.77;;;4.94;55.72
36138;BME280;67787;50.074;21.904;2023-04-27T02:28:14;99154.78;;;4.94;55.77
36138;BME280;67787;50.074;21.904;2023-04-27T02:30:42;99151.63;;;4.93;55.88
36138;BME280;67787;50.074;21.904;2023-04-27T02:33:10;99152.34;;;4.93;55.81
36138;BME280;67787;50.074;21.904;2023-04-27T02:35:38;99149.73;;;4.92;55.93
36138;BME280;67787;50.074;21.904;2023-04-27T02:38:06;99154.70;;;4.91;55.90
36138;BME280;67787;50.074;21.904;2023-04-27T02:40:34;99154.60;;;4.94;56.03
36138;BME280;67787;50.074;21.904;2023-04-27T02:43:02;99152.95;;;4.96;56.09
36138;BME280;67787;50.074;21.904;2023-04-27T02:45:30;99157.36;;;4.95;55.99
36138;BME280;67787;50.074;21.904;2023-04-27T02:47:58;99161.62;;;4.94;56.14
36138;BME280;67787;50.074;21.904;2023-04-27T02:50:26;99158.85;;;4.93;56.08
36138;BME280;67787;50.074;21.904;2023-04-27T02:52:54;99161.41;;;4.91;56.20
36138;BME280;67787;50.074;21.904;2023-04-27T02:55:23;99162.94;;;4.89;56.15
36138;BME280;67787;50.074;21.904;2023-04-27T02:57:51;99163.20;;;4.87;56.25
36138;BME280;67787;50.074;21.904;2023-04-27T03:00:19;99161.86;;;4.85;56.19
36138;BME280;67787;50.074;21.904;2023-04-27T03:02:46;99165.95;;;4.85;56.32
36138;BME280;67787;50.074;21.904;2023-04-27T03:05:15;99168.70;;;4.86;56.30
36138;BME280;67787;50.074;21.904;2023-04-27T03:07:43;99170.99;;;4.86;56.36
36138;BME280;67787;50.074;21.904;2023-04-27T03:10:11;99172.02;;;4.86;56.51
36138;BME280;67787;50.074;21.904;2023-04-27T03:12:39;99168.44;;;4.84;56.31
36138;BME280;67787;50.074;21.904;2023-04-27T03:15:07;99170.77;;;4.83;56.47
36138;BME280;67787;50.074;21.904;2023-04-27T03:17:35;99171.88;;;4.82;56.34
36138;BME280;67787;50.074;21.904;2023-04-27T03:20:03;99171.88;;;4.82;56.52
36138;BME280;67787;50.074;21.904;2023-04-27T03:22:35;99176.30;;;4.81;56.45
36138;BME280;67787;50.074;21.904;2023-04-27T03:25:04;99177.15;;;4.82;56.70
36138;BME280;67787;50.074;21.904;2023-04-27T03:27:32;99176.36;;;4.83;56.57
36138;BME280;67787;50.074;21.904;2023-04-27T03:30:00;99175.02;;;4.82;56.79
36138;BME280;67787;50.074;21.904;2023-04-27T03:32:28;99174.89;;;4.81;56.69
36138;BME280;67787;50.074;21.904;2023-04-27T03:34:56;99177.55;;;4.81;56.71
36138;BME280;67787;50.074;21.904;2023-04-27T03:37:23;99178.58;;;4.81;56.73
36138;BME280;67787;50.074;21.904;2023-04-27T03:39:51;99182.32;;;4.80;56.80
36138;BME280;67787;50.074;21.904;2023-04-27T03:42:19;99184.48;;;4.83;56.84
36138;BME280;67787;50.074;21.904;2023-04-27T03:44:47;99190.27;;;4.83;56.86
36138;BME280;67787;50.074;21.904;2023-04-27T03:47:15;99189.23;;;4.83;56.84
36138;BME280;67787;50.074;21.904;2023-04-27T03:49:42;99192.81;;;4.81;56.87
36138;BME280;67787;50.074;21.904;2023-04-27T03:52:10;99193.83;;;4.82;56.91
36138;BME280;67787;50.074;21.904;2023-04-27T03:54:38;99198.11;;;4.84;57.00
36138;BME280;67787;50.074;21.904;2023-04-27T03:57:06;99200.86;;;4.86;57.00
36138;BME280;67787;50.074;21.904;2023-04-27T03:59:34;99200.96;;;4.87;57.01
36138;BME280;67787;50.074;21.904;2023-04-27T04:02:02;99204.66;;;4.91;57.11
36138;BME280;67787;50.074;21.904;2023-04-27T04:04:32;99206.89;;;4.92;57.10
36138;BME280;67787;50.074;21.904;2023-04-27T04:07:00;99208.44;;;4.92;57.05
36138;BME280;67787;50.074;21.904;2023-04-27T04:09:28;99207.41;;;4.92;57.00
36138;BME280;67787;50.074;21.904;2023-04-27T04:11:56;99213.45;;;4.94;57.15
36138;BME280;67787;50.074;21.904;2023-04-27T04:14:24;99216.09;;;4.98;57.26
36138;BME280;67787;50.074;21.904;2023-04-27T04:16:53;99219.44;;;5.01;57.16
36138;BME280;67787;50.074;21.904;2023-04-27T04:19:21;99221.37;;;5.05;57.31
36138;BME280;67787;50.074;21.904;2023-04-27T04:21:49;99223.73;;;5.12;57.33
36138;BME280;67787;50.074;21.904;2023-04-27T04:24:17;99226.95;;;5.17;57.32
36138;BME280;67787;50.074;21.904;2023-04-27T04:26:45;99229.01;;;5.19;57.26
36138;BME280;67787;50.074;21.904;2023-04-27T04:29:13;99230.82;;;5.21;57.25
36138;BME280;67787;50.074;21.904;2023-04-27T04:31:43;99233.08;;;5.26;57.51
36138;BME280;67787;50.074;21.904;2023-04-27T04:34:11;99235.77;;;5.28;57.45
36138;BME280;67787;50.074;21.904;2023-04-27T04:36:39;99238.91;;;5.32;57.37
36138;BME280;67787;50.074;21.904;2023-04-27T04:39:07;99241.98;;;5.38;57.37
36138;BME280;67787;50.074;21.904;2023-04-27T04:41:34;99253.02;;;5.46;57.52
36138;BME280;67787;50.074;21.904;2023-04-27T04:44:03;99251.41;;;5.54;57.55
36138;BME280;67787;50.074;21.904;2023-04-27T04:46:32;99253.02;;;5.61;57.59
36138;BME280;67787;50.074;21.904;2023-04-27T04:49:00;99255.75;;;5.62;57.44
36138;BME280;67787;50.074;21.904;2023-04-27T04:51:29;99255.48;;;5.65;57.53
36138;BME280;67787;50.074;21.904;2023-04-27T04:53:57;99258.69;;;5.71;57.47
36138;BME280;67787;50.074;21.904;2023-04-27T04:56:28;99263.61;;;5.74;57.57
36138;BME280;67787;50.074;21.904;2023-04-27T04:58:57;99260.40;;;5.75;57.55
36138;BME280;67787;50.074;21.904;2023-04-27T05:01:25;99265.95;;;5.80;57.54
36138;BME280;67787;50.074;21.904;2023-04-27T05:03:53;99265.71;;;5.85;57.52
36138;BME280;67787;50.074;21.904;2023-04-27T05:06:21;99269.83;;;5.91;57.63
36138;BME280;67787;50.074;21.904;2023-04-27T05:08:49;99276.09;;;5.92;57.70
36138;BME280;67787;50.074;21.904;2023-04-27T05:11:16;99280.83;;;5.93;57.71
36138;BME280;67787;50.074;21.904;2023-04-27T05:13:45;99279.81;;;5.92;57.63
36138;BME280;67787;50.074;21.904;2023-04-27T05:16:14;99282.14;;;5.91;57.72
36138;BME280;67787;50.074;21.904;2023-04-27T05:18:42;99281.19;;;5.92;57.72
36138;BME280;67787;50.074;21.904;2023-04-27T05:21:15;99283.16;;;5.95;57.64
36138;BME280;67787;50.074;21.904;2023-04-27T05:23:44;99282.69;;;5.94;57.81
36138;BME280;67787;50.074;21.904;2023-04-27T05:26:16;99285.12;;;5.88;57.70
36138;BME280;67787;50.074;21.904;2023-04-27T05:28:45;99283.91;;;5.81;57.81
36138;BME280;67787;50.074;21.904;2023-04-27T05:31:13;99289.80;;;5.75;57.80
36138;BME280;67787;50.074;21.904;2023-04-27T05:33:41;99293.84;;;5.72;57.65
36138;BME280;67787;50.074;21.904;2023-04-27T05:36:09;99295.88;;;5.70;57.69
36138;BME280;67787;50.074;21.904;2023-04-27T05:38:37;99292.31;;;5.70;57.57
36138;BME280;67787;50.074;21.904;2023-04-27T05:41:07;99298.19;;;5.73;57.65
36138;BME280;67787;50.074;21.904;2023-04-27T05:43:35;99302.19;;;5.73;57.72
36138;BME280;67787;50.074;21.904;2023-04-27T05:46:05;99303.17;;;5.75;57.77
36138;BME280;67787;50.074;21.904;2023-04-27T05:48:33;99301.63;;;5.78;57.84
36138;BME280;67787;50.074;21.904;2023-04-27T05:51:02;99301.61;;;5.81;57.85
36138;BME280;67787;50.074;21.904;2023-04-27T05:53:33;99304.73;;;5.83;57.91
36138;BME280;67787;50.074;21.904;2023-04-27T05:56:01;99304.37;;;5.90;58.07
36138;BME280;67787;50.074;21.904;2023-04-27T05:58:31;99311.29;;;6.04;58.11
36138;BME280;67787;50.074;21.904;2023-04-27T06:01:00;99311.67;;;6.10;57.90
36138;BME280;67787;50.074;21.904;2023-04-27T06:03:29;99312.30;;;6.15;58.17
36138;BME280;67787;50.074;21.904;2023-04-27T06:05:59;99311.41;;;6.19;57.93
36138;BME280;67787;50.074;21.904;2023-04-27T06:08:27;99310.10;;;6.21;57.97
36138;BME280;67787;50.074;21.904;2023-04-27T06:10:56;99313.64;;;6.24;57.93
36138;BME280;67787;50.074;21.904;2023-04-27T06:13:24;99312.70;;;6.25;57.92
36138;BME280;67787;50.074;21.904;2023-04-27T06:15:53;99313.95;;;6.29;58.20
36138;BME280;67787;50.074;21.904;2023-04-27T06:18:21;99311.84;;;6.32;58.16
36138;BME280;67787;50.074;21.904;2023-04-27T06:20:48;99316.28;;;6.34;58.04
36138;BME280;67787;50.074;21.904;2023-04-27T06:23:17;99320.34;;;6.37;58.08
36138;BME280;67787;50.074;21.904;2023-04-27T06:25:44;99322.34;;;6.36;57.67
36138;BME280;67787;50.074;21.904;2023-04-27T06:28:12;99322.80;;;6.38;58.09
36138;BME280;67787;50.074;21.904;2023-04-27T06:30:41;99324.48;;;6.46;58.04
36138;BME280;67787;50.074;21.904;2023-04-27T06:33:09;99324.56;;;6.58;58.16
36138;BME280;67787;50.074;21.904;2023-04-27T06:35:37;99323.14;;;6.72;58.22
36138;BME280;67787;50.074;21.904;2023-04-27T06:38:05;99325.67;;;6.91;58.11
36138;BME280;67787;50.074;21.904;2023-04-27T06:40:34;99326.38;;;7.11;58.27
36138;BME280;67787;50.074;21.904;2023-04-27T06:43:03;99330.80;;;7.33;58.05
36138;BME280;67787;50.074;21.904;2023-04-27T06:45:32;99331.31;;;7.57;58.12
36138;BME280;67787;50.074;21.904;2023-04-27T06:48:00;99331.08;;;7.79;58.18
36138;BME280;67787;50.074;21.904;2023-04-27T06:50:28;99329.86;;;8.04;58.29
36138;BME280;67787;50.074;21.904;2023-04-27T06:52:57;99331.58;;;8.32;58.37
36138;BME280;67787;50.074;21.904;2023-04-27T06:55:24;99332.51;;;8.50;58.10
36138;BME280;67787;50.074;21.904;2023-04-27T06:57:52;99334.51;;;8.67;58.21
36138;BME280;67787;50.074;21.904;2023-04-27T07:00:21;99333.65;;;8.90;58.13
36138;BME280;67787;50.074;21.904;2023-04-27T07:02:49;99330.05;;;9.05;58.32
36138;BME280;67787;50.074;21.904;2023-04-27T07:05:18;99328.15;;;9.25;58.44
36138;BME280;67787;50.074;21.904;2023-04-27T07:07:46;99332.79;;;9.38;58.36
36138;BME280;67787;50.074;21.904;2023-04-27T07:10:14;99333.65;;;9.50;58.37
36138;BME280;67787;50.074;21.904;2023-04-27T07:12:42;99328.50;;;9.56;58.46
36138;BME280;67787;50.074;21.904;2023-04-27T07:15:11;99334.79;;;9.62;58.40
36138;BME280;67787;50.074;21.904;2023-04-27T07:17:40;99340.50;;;9.64;58.10
36138;BME280;67787;50.074;21.904;2023-04-27T07:20:08;99341.09;;;9.64;57.96
36138;BME280;67787;50.074;21.904;2023-04-27T07:22:36;99352.15;;;9.48;57.12
36138;BME280;67787;50.074;21.904;2023-04-27T07:25:05;99350.21;;;9.25;57.56
36138;BME280;67787;50.074;21.904;2023-04-27T07:27:33;99356.26;;;9.14;57.59
36138;BME280;67787;50.074;21.904;2023-04-27T07:30:03;99355.31;;;8.97;57.49
36138;BME280;67787;50.074;21.904;2023-04-27T07:32:32;99353.75;;;8.73;57.54
36138;BME280;67787;50.074;21.904;2023-04-27T07:35:00;99353.65;;;8.54;57.70
36138;BME280;67787;50.074;21.904;2023-04-27T07:37:28;99353.02;;;8.46;57.79
36138;BME280;67787;50.074;21.904;2023-04-27T07:39:56;99353.52;;;8.47;57.82
36138;BME280;67787;50.074;21.904;2023-04-27T07:42:26;99360.31;;;8.45;57.76
36138;BME280;67787;50.074;21.904;2023-04-27T07:44:55;99361.12;;;8.38;57.78
36138;BME280;67787;50.074;21.904;2023-04-27T07:47:23;99361.88;;;8.31;57.61
36138;BME280;67787;50.074;21.904;2023-04-27T07:49:51;99362.61;;;8.18;57.34
36138;BME280;67787;50.074;21.904;2023-04-27T07:52:19;99364.44;;;8.02;57.36
36138;BME280;67787;50.074;21.904;2023-04-27T07:54:48;99361.75;;;7.90;57.65
36138;BME280;67787;50.074;21.904;2023-04-27T07:57:15;99361.27;;;7.86;57.62
36138;BME280;67787;50.074;21.904;2023-04-27T07:59:43;99361.02;;;7.81;57.69
36138;BME280;67787;50.074;21.904;2023-04-27T08:02:13;99362.84;;;7.74;57.62
36138;BME280;67787;50.074;21.904;2023-04-27T08:04:46;99362.60;;;7.68;57.66
36138;BME280;67787;50.074;21.904;2023-04-27T08:07:16;99359.67;;;7.64;57.67
36138;BME280;67787;50.074;21.904;2023-04-27T08:09:46;99356.56;;;7.72;57.79
36138;BME280;67787;50.074;21.904;2023-04-27T08:12:13;99356.02;;;7.91;57.81
36138;BME280;67787;50.074;21.904;2023-04-27T08:14:41;99356.38;;;8.13;57.89
36138;BME280;67787;50.074;21.904;2023-04-27T08:17:09;99356.73;;;8.40;57.98
36138;BME280;67787;50.074;21.904;2023-04-27T08:19:39;99357.55;;;8.72;57.95
36138;BME280;67787;50.074;21.904;2023-04-27T08:22:07;99355.30;;;8.94;57.62
36138;BME280;67787;50.074;21.904;2023-04-27T08:24:35;99348.31;;;9.07;57.63
36138;BME280;67787;50.074;21.904;2023-04-27T08:27:07;99341.55;;;9.17;57.70
36138;BME280;67787;50.074;21.904;2023-04-27T08:29:35;99342.92;;;9.29;57.71
36138;BME280;67787;50.074;21.904;2023-04-27T08:32:03;99344.15;;;9.43;57.68
36138;BME280;67787;50.074;21.904;2023-04-27T08:34:32;99350.24;;;9.53;57.64
36138;BME280;67787;50.074;21.904;2023-04-27T08:37:00;99345.41;;;9.60;57.42
36138;BME280;67787;50.074;21.904;2023-04-27T08:39:29;99343.59;;;9.72;57.43
36138;BME280;67787;50.074;21.904;2023-04-27T08:41:56;99347.52;;;9.90;57.29
36138;BME280;67787;50.074;21.904;2023-04-27T08:44:24;99348.33;;;10.00;56.93
36138;BME280;67787;50.074;21.904;2023-04-27T08:46:52;99344.17;;;10.06;57.15
36138;BME280;67787;50.074;21.904;2023-04-27T08:49:21;99341.52;;;10.17;57.00
36138;BME280;67787;50.074;21.904;2023-04-27T08:51:49;99333.65;;;10.23;56.72
36138;BME280;67787;50.074;21.904;2023-04-27T08:54:18;99334.98;;;10.27;56.65
36138;BME280;67787;50.074;21.904;2023-04-27T08:56:46;99337.09;;;10.25;56.49
36138;BME280;67787;50.074;21.904;2023-04-27T08:59:14;99333.05;;;10.25;55.90
36138;BME280;67787;50.074;21.904;2023-04-27T09:01:47;99328.70;;;10.29;55.91
36138;BME280;67787;50.074;21.904;2023-04-27T09:04:16;99330.64;;;10.32;55.97
36138;BME280;67787;50.074;21.904;2023-04-27T09:06:45;99330.94;;;10.33;55.99
36138;BME280;67787;50.074;21.904;2023-04-27T09:09:23;99326.48;;;10.30;56.24
36138;BME280;67787;50.074;21.904;2023-04-27T09:11:52;99322.88;;;10.25;55.96
36138;BME280;67787;50.074;21.904;2023-04-27T09:14:21;99322.83;;;10.13;55.43
36138;BME280;67787;50.074;21.904;2023-04-27T09:16:54;99326.14;;;9.95;54.90
36138;BME280;67787;50.074;21.904;2023-04-27T09:19:27;99333.27;;;9.72;55.05
36138;BME280;67787;50.074;21.904;2023-04-27T09:22:03;99334.31;;;9.53;55.31
36138;BME280;67787;50.074;21.904;2023-04-27T09:24:31;99335.16;;;9.43;55.38
36138;BME280;67787;50.074;21.904;2023-04-27T09:26:59;99340.45;;;9.40;55.47
36138;BME280;67787;50.074;21.904;2023-04-27T09:29:36;99339.09;;;9.42;54.93
36138;BME280;67787;50.074;21.904;2023-04-27T09:32:16;99338.88;;;9.43;55.01
36138;BME280;67787;50.074;21.904;2023-04-27T09:34:47;99341.05;;;9.45;55.06
36138;BME280;67787;50.074;21.904;2023-04-27T09:37:15;99335.52;;;9.48;55.17
36138;BME280;67787;50.074;21.904;2023-04-27T09:39:43;99334.09;;;9.54;55.07
36138;BME280;67787;50.074;21.904;2023-04-27T09:42:12;99329.09;;;9.66;54.92
36138;BME280;67787;50.074;21.904;2023-04-27T09:44:40;99327.73;;;9.78;54.39
36138;BME280;67787;50.074;21.904;2023-04-27T09:47:09;99326.48;;;9.92;54.82
36138;BME280;67787;50.074;21.904;2023-04-27T09:49:37;99328.79;;;10.14;54.62
36138;BME280;67787;50.074;21.904;2023-04-27T09:52:05;99327.63;;;10.37;54.72
36138;BME280;67787;50.074;21.904;2023-04-27T09:54:33;99328.91;;;10.55;54.20
36138;BME280;67787;50.074;21.904;2023-04-27T10:08:13;99328.44;;;11.26;54.16
36138;BME280;67787;50.074;21.904;2023-04-27T10:10:46;99326.86;;;11.28;53.27
36138;BME280;67787;50.074;21.904;2023-04-27T10:13:25;99325.08;;;11.21;53.31
36138;BME280;67787;50.074;21.904;2023-04-27T10:15:53;99325.56;;;11.16;53.93
36138;BME280;67787;50.074;21.904;2023-04-27T10:18:26;99329.91;;;11.18;53.10
36138;BME280;67787;50.074;21.904;2023-04-27T10:20:54;99329.02;;;11.12;53.33
36138;BME280;67787;50.074;21.904;2023-04-27T10:23:25;99328.20;;;11.09;52.87
36138;BME280;67787;50.074;21.904;2023-04-27T10:25:53;99324.80;;;11.02;53.04
36138;BME280;67787;50.074;21.904;2023-04-27T10:28:21;99320.52;;;10.97;52.70
36138;BME280;67787;50.074;21.904;2023-04-27T10:30:49;99317.67;;;10.92;53.18
36138;BME280;67787;50.074;21.904;2023-04-27T10:33:21;99315.62;;;10.96;53.23
36138;BME280;67787;50.074;21.904;2023-04-27T10:35:55;99311.63;;;11.08;53.30
36138;BME280;67787;50.074;21.904;2023-04-27T10:38:28;99315.94;;;11.27;53.32
36138;BME280;67787;50.074;21.904;2023-04-27T10:40:59;99316.16;;;11.54;53.47
36138;BME280;67787;50.074;21.904;2023-04-27T10:43:34;99311.91;;;11.75;53.03
36138;BME280;67787;50.074;21.904;2023-04-27T10:46:10;99309.45;;;12.02;53.28
36138;BME280;67787;50.074;21.904;2023-04-27T10:48:39;99305.73;;;12.10;51.47
36138;BME280;67787;50.074;21.904;2023-04-27T10:51:07;99305.24;;;12.06;52.37
36138;BME280;67787;50.074;21.904;2023-04-27T10:53:36;99301.79;;;12.14;52.91
36138;BME280;67787;50.074;21.904;2023-04-27T10:56:04;99303.77;;;12.22;51.45
36138;BME280;67787;50.074;21.904;2023-04-27T10:58:34;99304.92;;;12.20;52.54
36138;BME280;67787;50.074;21.904;2023-04-27T11:01:25;99307.55;;;12.35;52.39
36138;BME280;67787;50.074;21.904;2023-04-27T11:03:55;99307.84;;;12.47;52.75
36138;BME280;67787;50.074;21.904;2023-04-27T11:06:27;99306.96;;;12.54;52.72
36138;BME280;67787;50.074;21.904;2023-04-27T11:08:56;99309.92;;;12.67;52.88
36138;BME280;67787;50.074;21.904;2023-04-27T11:11:24;99310.72;;;12.77;52.72
36138;BME280;67787;50.074;21.904;2023-04-27T11:13:53;99313.77;;;12.86;52.54
36138;BME280;67787;50.074;21.904;2023-04-27T11:16:22;99314.80;;;12.96;52.65
36138;BME280;67787;50.074;21.904;2023-04-27T11:18:50;99311.61;;;13.04;52.54
36138;BME280;67787;50.074;21.904;2023-04-27T11:21:19;99310.90;;;13.09;52.41
36138;BME280;67787;50.074;21.904;2023-04-27T11:23:48;99318.38;;;13.11;52.03
36138;BME280;67787;50.074;21.904;2023-04-27T11:26:17;99324.38;;;12.98;50.48
36138;BME280;67787;50.074;21.904;2023-04-27T11:31:25;99323.37;;;12.58;51.27
36138;BME280;67787;50.074;21.904;2023-04-27T11:33:54;99322.38;;;12.50;51.37
36138;BME280;67787;50.074;21.904;2023-04-27T11:36:22;99321.02;;;12.45;51.33
36138;BME280;67787;50.074;21.904;2023-04-27T11:38:56;99320.77;;;12.37;49.75
36138;BME280;67787;50.074;21.904;2023-04-27T11:41:35;99318.07;;;12.13;50.85
36138;BME280;67787;50.074;21.904;2023-04-27T11:44:06;99320.48;;;11.99;51.01
36138;BME280;67787;50.074;21.904;2023-04-27T11:46:35;99316.67;;;11.91;51.05
36138;BME280;67787;50.074;21.904;2023-04-27T11:49:05;99322.88;;;11.84;50.73
36138;BME280;67787;50.074;21.904;2023-04-27T11:51:35;99319.11;;;11.72;50.56
36138;BME280;67787;50.074;21.904;2023-04-27T11:54:05;99325.82;;;11.52;49.82
36138;BME280;67787;50.074;21.904;2023-04-27T11:56:36;99327.80;;;11.32;50.16
36138;BME280;67787;50.074;21.904;2023-04-27T11:59:04;99328.27;;;11.21;49.56
36138;BME280;67787;50.074;21.904;2023-04-27T12:01:33;99328.23;;;11.06;49.95
36138;BME280;67787;50.074;21.904;2023-04-27T12:04:04;99325.02;;;11.01;50.07
36138;BME280;67787;50.074;21.904;2023-04-27T12:06:33;99324.52;;;11.03;50.15
36138;BME280;67787;50.074;21.904;2023-04-27T12:09:01;99328.63;;;11.16;50.19
36138;BME280;67787;50.074;21.904;2023-04-27T12:11:30;99328.95;;;11.26;49.82
36138;BME280;67787;50.074;21.904;2023-04-27T12:13:58;99327.54;;;11.39;50.01
36138;BME280;67787;50.074;21.904;2023-04-27T12:16:26;99324.73;;;11.53;49.98
36138;BME280;67787;50.074;21.904;2023-04-27T12:18:54;99325.59;;;11.68;49.72
36138;BME280;67787;50.074;21.904;2023-04-27T12:21:23;99325.16;;;11.79;49.99
36138;BME280;67787;50.074;21.904;2023-04-27T12:23:50;99324.53;;;11.85;50.01
36138;BME280;67787;50.074;21.904;2023-04-27T12:26:20;99323.65;;;11.87;49.72
36138;BME280;67787;50.074;21.904;2023-04-27T12:28:48;99324.35;;;11.83;49.42
36138;BME280;67787;50.074;21.904;2023-04-27T12:31:16;99320.68;;;11.70;49.27
36138;BME280;67787;50.074;21.904;2023-04-27T12:33:51;99325.52;;;11.52;48.95
36138;BME280;67787;50.074;21.904;2023-04-27T12:36:19;99328.46;;;11.31;49.09
36138;BME280;67787;50.074;21.904;2023-04-27T12:38:47;99328.36;;;11.12;48.87
36138;BME280;67787;50.074;21.904;2023-04-27T12:41:15;99334.46;;;11.01;49.15
36138;BME280;67787;50.074;21.904;2023-04-27T12:43:43;99334.16;;;10.92;49.02
36138;BME280;67787;50.074;21.904;2023-04-27T12:46:12;99339.84;;;10.84;48.99
36138;BME280;67787;50.074;21.904;2023-04-27T12:48:40;99339.29;;;10.75;48.63
36138;BME280;67787;50.074;21.904;2023-04-27T12:51:09;99339.77;;;10.62;48.80
36138;BME280;67787;50.074;21.904;2023-04-27T12:53:37;99335.51;;;10.55;48.53
36138;BME280;67787;50.074;21.904;2023-04-27T12:56:05;99335.80;;;10.53;48.77
36138;BME280;67787;50.074;21.904;2023-04-27T12:58:33;99337.30;;;10.54;48.64
36138;BME280;67787;50.074;21.904;2023-04-27T13:01:01;99335.00;;;10.59;48.59
36138;BME280;67787;50.074;21.904;2023-04-27T13:03:29;99332.46;;;10.68;48.63
36138;BME280;67787;50.074;21.904;2023-04-27T13:05:58;99331.86;;;10.74;48.49
36138;BME280;67787;50.074;21.904;2023-04-27T13:08:26;99328.91;;;10.84;48.66
36138;BME280;67787;50.074;21.904;2023-04-27T13:10:54;99328.78;;;10.96;48.52
36138;BME280;67787;50.074;21.904;2023-04-27T13:13:22;99328.15;;;11.07;48.58
36138;BME280;67787;50.074;21.904;2023-04-27T13:15:50;99330.83;;;11.22;48.66
36138;BME280;67787;50.074;21.904;2023-04-27T13:18:18;99335.33;;;11.37;48.59
36138;BME280;67787;50.074;21.904;2023-04-27T13:20:47;99330.13;;;11.47;48.37